sensor_id;sensor_type;location;lat;lon;timestamp;temperature;humidity
23719;DHT22;43322;52.230;5.702;2023-12-22T00:02:25;6.20;99.90
23719;DHT22;43322;52.230;5.702;2023-12-22T00:04:54;6.30;99.90
23719;DHT22;43322;52.230;5.702;2023-12-22T00:07:22;6.40;99.90
23719;DHT22;43322;52.230;5.702;2023-12-22T00:09:49;6.40;99.90
23719;DHT22;43322;52.230;5.702;2023-12-22T00:12:16;6.40;99.90
23719;DHT22;43322;52.230;5.702;2023-12-22T00:14:43;6.50;99.90
23719;DHT22;43322;52.230;5.702;2023-12-22T00:17:09;6.70;99.90
23719;DHT22;43322;52.230;5.702;2023-12-22T00:19:37;6.80;99.90
23719;DHT22;43322;52.230;5.702;2023-12-22T00:22:04;6.80;99.90
23719;DHT22;43322;52.230;5.702;2023-12-22T00:24:32;6.80;99.90
23719;DHT22;43322;52.230;5.702;2023-12-22T00:26:59;6.80;99.90
23719;DHT22;43322;52.230;5.702;2023-12-22T00:29:26;7.00;99.90
23719;DHT22;43322;52.230;5.702;2023-12-22T00:31:54;6.90;99.90
23719;DHT22;43322;52.230;5.702;2023-12-22T00:34:21;8.00;99.90
23719;DHT22;43322;52.230;5.702;2023-12-22T00:36:48;6.80;99.90
23719;DHT22;43322;52.230;5.702;2023-12-22T00:39:15;7.80;99.90
23719;DHT22;43322;52.230;5.702;2023-12-22T00:41:44;6.90;99.90
23719;DHT22;43322;52.230;5.702;2023-12-22T00:44:11;6.80;99.90
23719;DHT22;43322;52.230;5.702;2023-12-22T00:46:38;6.80;99.90
23719;DHT22;43322;52.230;5.702;2023-12-22T00:49:05;6.90;99.90
23719;DHT22;43322;52.230;5.702;2023-12-22T00:51:32;7.40;99.90
23719;DHT22;43322;52.230;5.702;2023-12-22T00:53:58;6.80;99.90
23719;DHT22;43322;52.230;5.702;2023-12-22T00:56:25;7.60;99.90
23719;DHT22;43322;52.230;5.702;2023-12-22T00:58:55;6.70;99.90
23719;DHT22;43322;52.230;5.702;2023-12-22T01:01:22;6.60;99.90
23719;DHT22;43322;52.230;5.702;2023-12-22T01:03:49;6.60;99.90
23719;DHT22;43322;52.230;5.702;2023-12-22T01:06:16;6.60;99.90
23719;DHT22;43322;52.230;5.702;2023-12-22T01:08:43;6.60;99.90
23719;DHT22;43322;52.230;5.702;2023-12-22T01:11:10;6.50;99.90
23719;DHT22;43322;52.230;5.702;2023-12-22T01:13:37;6.50;99.90
23719;DHT22;43322;52.230;5.702;2023-12-22T01:16:06;6.50;99.90
23719;DHT22;43322;52.230;5.702;2023-12-22T01:18:33;6.40;99.90
23719;DHT22;43322;52.230;5.702;2023-12-22T01:20:59;7.00;99.90
23719;DHT22;43322;52.230;5.702;2023-12-22T01:23:26;6.50;99.90
23719;DHT22;43322;52.230;5.702;2023-12-22T01:25:53;6.40;99.90
23719;DHT22;43322;52.230;5.702;2023-12-22T01:28:20;6.50;99.90
23719;DHT22;43322;52.230;5.702;2023-12-22T01:30:47;6.50;99.90
23719;DHT22;43322;52.230;5.702;2023-12-22T01:33:16;6.50;99.90
23719;DHT22;43322;52.230;5.702;2023-12-22T01:35:43;6.60;99.90
23719;DHT22;43322;52.230;5.702;2023-12-22T01:38:10;7.30;99.90
23719;DHT22;43322;52.230;5.702;2023-12-22T01:40:36;7.70;99.90
23719;DHT22;43322;52.230;5.702;2023-12-22T01:43:03;6.90;99.90
23719;DHT22;43322;52.230;5.702;2023-12-22T01:45:30;7.20;99.90
23719;DHT22;43322;52.230;5.702;2023-12-22T01:47:57;6.40;99.90
23719;DHT22;43322;52.230;5.702;2023-12-22T01:50:26;6.40;99.90
23719;DHT22;43322;52.230;5.702;2023-12-22T01:52:53;6.70;99.90
23719;DHT22;43322;52.230;5.702;2023-12-22T01:55:21;7.00;99.90
23719;DHT22;43322;52.230;5.702;2023-12-22T01:57:49;6.20;99.90
23719;DHT22;43322;52.230;5.702;2023-12-22T02:00:16;6.20;99.90
23719;DHT22;43322;52.230;5.702;2023-12-22T02:02:43;6.20;99.90
23719;DHT22;43322;52.230;5.702;2023-12-22T02:05:10;6.30;99.90
23719;DHT22;43322;52.230;5.702;2023-12-22T02:07:41;6.30;99.90
23719;DHT22;43322;52.230;5.702;2023-12-22T02:10:08;6.30;99.90
23719;DHT22;43322;52.230;5.702;2023-12-22T02:12:35;6.50;99.90
23719;DHT22;43322;52.230;5.702;2023-12-22T02:15:03;6.30;99.90
23719;DHT22;43322;52.230;5.702;2023-12-22T02:17:36;6.20;99.90
23719;DHT22;43322;52.230;5.702;2023-12-22T02:20:07;6.10;99.90
23719;DHT22;43322;52.230;5.702;2023-12-22T02:22:35;6.20;99.90
23719;DHT22;43322;52.230;5.702;2023-12-22T02:25:03;6.20;99.90
23719;DHT22;43322;52.230;5.702;2023-12-22T02:27:34;6.20;99.90
23719;DHT22;43322;52.230;5.702;2023-12-22T02:30:08;6.20;99.90
23719;DHT22;43322;52.230;5.702;2023-12-22T02:32:38;6.20;99.90
23719;DHT22;43322;52.230;5.702;2023-12-22T02:35:09;6.20;99.90
23719;DHT22;43322;52.230;5.702;2023-12-22T02:37:39;6.20;99.90
23719;DHT22;43322;52.230;5.702;2023-12-22T02:40:07;6.30;99.90
23719;DHT22;43322;52.230;5.702;2023-12-22T02:42:36;6.30;99.90
23719;DHT22;43322;52.230;5.702;2023-12-22T02:45:04;6.30;99.90
23719;DHT22;43322;52.230;5.702;2023-12-22T02:47:32;6.40;99.90
23719;DHT22;43322;52.230;5.702;2023-12-22T02:49:59;6.50;99.90
23719;DHT22;43322;52.230;5.702;2023-12-22T02:52:25;6.10;99.90
23719;DHT22;43322;52.230;5.702;2023-12-22T02:54:54;5.80;99.90
23719;DHT22;43322;52.230;5.702;2023-12-22T02:57:21;4.30;99.90
23719;DHT22;43322;52.230;5.702;2023-12-22T02:59:48;5.30;99.90
23719;DHT22;43322;52.230;5.702;2023-12-22T03:02:15;5.90;99.90
23719;DHT22;43322;52.230;5.702;2023-12-22T03:04:42;6.30;99.90
23719;DHT22;43322;52.230;5.702;2023-12-22T03:07:09;6.00;99.90
23719;DHT22;43322;52.230;5.702;2023-12-22T03:09:36;5.10;99.90
23719;DHT22;43322;52.230;5.702;2023-12-22T03:12:05;5.40;99.90
23719;DHT22;43322;52.230;5.702;2023-12-22T03:14:32;5.20;99.90
23719;DHT22;43322;52.230;5.702;2023-12-22T03:16:59;6.20;99.90
23719;DHT22;43322;52.230;5.702;2023-12-22T03:19:26;5.20;99.90
23719;DHT22;43322;52.230;5.702;2023-12-22T03:21:53;5.30;99.90
23719;DHT22;43322;52.230;5.702;2023-12-22T03:24:22;5.70;99.90
23719;DHT22;43322;52.230;5.702;2023-12-22T03:26:49;5.40;99.90
23719;DHT22;43322;52.230;5.702;2023-12-22T03:29:18;5.70;99.90
23719;DHT22;43322;52.230;5.702;2023-12-22T03:31:45;5.80;99.90
23719;DHT22;43322;52.230;5.702;2023-12-22T03:34:12;5.50;99.90
23719;DHT22;43322;52.230;5.702;2023-12-22T03:36:39;5.40;99.90
23719;DHT22;43322;52.230;5.702;2023-12-22T03:39:06;5.40;99.90
23719;DHT22;43322;52.230;5.702;2023-12-22T03:41:33;6.10;99.90
23719;DHT22;43322;52.230;5.702;2023-12-22T03:44:00;5.30;99.90
23719;DHT22;43322;52.230;5.702;2023-12-22T03:46:29;5.50;99.90
23719;DHT22;43322;52.230;5.702;2023-12-22T03:48:56;5.40;99.90
23719;DHT22;43322;52.230;5.702;2023-12-22T03:51:21;6.30;99.90
23719;DHT22;43322;52.230;5.702;2023-12-22T03:53:49;5.60;99.90
23719;DHT22;43322;52.230;5.702;2023-12-22T03:56:15;5.40;99.90
23719;DHT22;43322;52.230;5.702;2023-12-22T03:58:44;5.30;99.90
23719;DHT22;43322;52.230;5.702;2023-12-22T04:01:14;5.30;99.90
23719;DHT22;43322;52.230;5.702;2023-12-22T04:03:42;5.30;99.90
23719;DHT22;43322;52.230;5.702;2023-12-22T04:06:09;5.20;99.90
23719;DHT22;43322;52.230;5.702;2023-12-22T04:08:36;5.60;99.90
23719;DHT22;43322;52.230;5.702;2023-12-22T04:11:03;5.40;99.90
23719;DHT22;43322;52.230;5.702;2023-12-22T04:13:30;5.20;99.90
23719;DHT22;43322;52.230;5.702;2023-12-22T04:15:57;5.20;99.90
23719;DHT22;43322;52.230;5.702;2023-12-22T04:18:24;5.20;99.90
23719;DHT22;43322;52.230;5.702;2023-12-22T04:20:52;5.30;99.90
23719;DHT22;43322;52.230;5.702;2023-12-22T04:23:20;5.30;99.90
23719;DHT22;43322;52.230;5.702;2023-12-22T04:25:48;5.30;99.90
23719;DHT22;43322;52.230;5.702;2023-12-22T04:28:15;5.30;99.90
23719;DHT22;43322;52.230;5.702;2023-12-22T04:30:42;6.00;99.90
23719;DHT22;43322;52.230;5.702;2023-12-22T04:33:09;5.50;99.90
23719;DHT22;43322;52.230;5.702;2023-12-22T04:35:36;5.40;99.90
23719;DHT22;43322;52.230;5.702;2023-12-22T04:38:05;5.50;99.90
23719;DHT22;43322;52.230;5.702;2023-12-22T04:40:32;5.60;99.90
23719;DHT22;43322;52.230;5.702;2023-12-22T04:42:59;5.70;99.90
23719;DHT22;43322;52.230;5.702;2023-12-22T04:45:25;6.00;99.90
23719;DHT22;43322;52.230;5.702;2023-12-22T04:47:53;7.00;99.90
23719;DHT22;43322;52.230;5.702;2023-12-22T04:50:19;5.80;99.90
23719;DHT22;43322;52.230;5.702;2023-12-22T04:52:46;5.90;99.90
23719;DHT22;43322;52.230;5.702;2023-12-22T04:55:15;6.70;99.90
23719;DHT22;43322;52.230;5.702;2023-12-22T04:57:42;6.20;99.90
23719;DHT22;43322;52.230;5.702;2023-12-22T05:00:09;6.20;99.90
23719;DHT22;43322;52.230;5.702;2023-12-22T05:02:36;6.00;99.90
23719;DHT22;43322;52.230;5.702;2023-12-22T05:05:03;6.40;99.90
23719;DHT22;43322;52.230;5.702;2023-12-22T05:07:30;6.00;99.90
23719;DHT22;43322;52.230;5.702;2023-12-22T05:09:57;6.80;99.90
23719;DHT22;43322;52.230;5.702;2023-12-22T05:12:26;5.90;99.90
23719;DHT22;43322;52.230;5.702;2023-12-22T05:14:52;5.90;99.90
23719;DHT22;43322;52.230;5.702;2023-12-22T05:17:20;6.00;99.90
23719;DHT22;43322;52.230;5.702;2023-12-22T05:19:46;6.00;99.90
23719;DHT22;43322;52.230;5.702;2023-12-22T05:22:13;6.20;99.90
23719;DHT22;43322;52.230;5.702;2023-12-22T05:24:40;5.90;99.90
23719;DHT22;43322;52.230;5.702;2023-12-22T05:27:07;5.90;99.90
23719;DHT22;43322;52.230;5.702;2023-12-22T05:29:36;5.80;99.90
23719;DHT22;43322;52.230;5.702;2023-12-22T05:32:04;5.90;99.90
23719;DHT22;43322;52.230;5.702;2023-12-22T05:34:31;5.80;99.90
23719;DHT22;43322;52.230;5.702;2023-12-22T05:36:58;6.30;99.90
23719;DHT22;43322;52.230;5.702;2023-12-22T05:39:25;6.00;99.90
23719;DHT22;43322;52.230;5.702;2023-12-22T05:41:51;6.00;99.90
23719;DHT22;43322;52.230;5.702;2023-12-22T05:44:18;5.90;99.90
23719;DHT22;43322;52.230;5.702;2023-12-22T05:46:47;6.00;99.90
23719;DHT22;43322;52.230;5.702;2023-12-22T05:49:13;6.40;99.90
23719;DHT22;43322;52.230;5.702;2023-12-22T05:51:40;6.00;99.90
23719;DHT22;43322;52.230;5.702;2023-12-22T05:54:08;6.20;99.90
23719;DHT22;43322;52.230;5.702;2023-12-22T05:56:35;6.00;99.90
23719;DHT22;43322;52.230;5.702;2023-12-22T05:59:02;6.40;99.90
23719;DHT22;43322;52.230;5.702;2023-12-22T06:01:29;6.90;99.90
23719;DHT22;43322;52.230;5.702;2023-12-22T06:03:58;6.00;99.90
23719;DHT22;43322;52.230;5.702;2023-12-22T06:06:26;6.00;99.90
23719;DHT22;43322;52.230;5.702;2023-12-22T06:08:55;6.00;99.90
23719;DHT22;43322;52.230;5.702;2023-12-22T06:11:22;6.10;99.90
23719;DHT22;43322;52.230;5.702;2023-12-22T06:13:49;6.10;99.90
23719;DHT22;43322;52.230;5.702;2023-12-22T06:16:16;6.00;99.90
23719;DHT22;43322;52.230;5.702;2023-12-22T06:18:44;6.90;99.90
23719;DHT22;43322;52.230;5.702;2023-12-22T06:21:12;6.00;99.90
23719;DHT22;43322;52.230;5.702;2023-12-22T06:23:40;6.10;99.90
23719;DHT22;43322;52.230;5.702;2023-12-22T06:26:10;6.20;99.90
23719;DHT22;43322;52.230;5.702;2023-12-22T06:28:38;7.00;99.90
23719;DHT22;43322;52.230;5.702;2023-12-22T06:31:05;6.50;99.90
23719;DHT22;43322;52.230;5.702;2023-12-22T06:33:32;7.70;99.90
23719;DHT22;43322;52.230;5.702;2023-12-22T06:35:59;6.70;99.90
23719;DHT22;43322;52.230;5.702;2023-12-22T06:38:28;6.70;99.90
23719;DHT22;43322;52.230;5.702;2023-12-22T06:40:55;6.60;99.90
23719;DHT22;43322;52.230;5.702;2023-12-22T06:43:22;6.60;99.90
23719;DHT22;43322;52.230;5.702;2023-12-22T06:45:50;6.60;99.90
23719;DHT22;43322;52.230;5.702;2023-12-22T06:48:20;6.60;99.90
23719;DHT22;43322;52.230;5.702;2023-12-22T06:50:47;6.50;99.90
23719;DHT22;43322;52.230;5.702;2023-12-22T06:53:14;7.10;99.90
23719;DHT22;43322;52.230;5.702;2023-12-22T06:55:42;6.40;99.90
23719;DHT22;43322;52.230;5.702;2023-12-22T06:58:10;6.70;99.90
23719;DHT22;43322;52.230;5.702;2023-12-22T07:00:37;7.50;99.90
23719;DHT22;43322;52.230;5.702;2023-12-22T07:03:04;6.70;99.90
23719;DHT22;43322;52.230;5.702;2023-12-22T07:05:33;6.80;99.90
23719;DHT22;43322;52.230;5.702;2023-12-22T07:08:06;6.80;99.90
23719;DHT22;43322;52.230;5.702;2023-12-22T07:10:33;6.90;99.90
23719;DHT22;43322;52.230;5.702;2023-12-22T07:13:01;7.20;99.90
23719;DHT22;43322;52.230;5.702;2023-12-22T07:15:28;6.80;99.90
23719;DHT22;43322;52.230;5.702;2023-12-22T07:17:55;6.90;99.90
23719;DHT22;43322;52.230;5.702;2023-12-22T07:20:22;7.30;99.90
23719;DHT22;43322;52.230;5.702;2023-12-22T07:22:49;7.10;99.90
23719;DHT22;43322;52.230;5.702;2023-12-22T07:25:16;7.10;99.90
23719;DHT22;43322;52.230;5.702;2023-12-22T07:27:45;7.10;99.90
23719;DHT22;43322;52.230;5.702;2023-12-22T07:30:14;7.20;99.90
23719;DHT22;43322;52.230;5.702;2023-12-22T07:32:44;7.00;99.90
23719;DHT22;43322;52.230;5.702;2023-12-22T07:35:13;7.40;99.90
23719;DHT22;43322;52.230;5.702;2023-12-22T07:37:40;7.80;99.90
23719;DHT22;43322;52.230;5.702;2023-12-22T07:40:08;7.40;99.90
23719;DHT22;43322;52.230;5.702;2023-12-22T07:42:35;7.40;99.90
23719;DHT22;43322;52.230;5.702;2023-12-22T07:45:05;7.80;99.90
23719;DHT22;43322;52.230;5.702;2023-12-22T07:47:34;7.40;99.90
23719;DHT22;43322;52.230;5.702;2023-12-22T07:50:02;7.50;99.90
23719;DHT22;43322;52.230;5.702;2023-12-22T07:52:29;7.50;99.90
23719;DHT22;43322;52.230;5.702;2023-12-22T07:54:55;7.40;99.90
23719;DHT22;43322;52.230;5.702;2023-12-22T07:57:22;7.50;99.90
23719;DHT22;43322;52.230;5.702;2023-12-22T07:59:49;7.70;99.90
23719;DHT22;43322;52.230;5.702;2023-12-22T08:02:16;7.40;99.90
23719;DHT22;43322;52.230;5.702;2023-12-22T08:04:45;7.90;99.90
23719;DHT22;43322;52.230;5.702;2023-12-22T08:07:12;7.50;99.90
23719;DHT22;43322;52.230;5.702;2023-12-22T08:09:39;7.60;99.90
23719;DHT22;43322;52.230;5.702;2023-12-22T08:12:07;7.20;99.90
23719;DHT22;43322;52.230;5.702;2023-12-22T08:14:35;7.40;99.90
23719;DHT22;43322;52.230;5.702;2023-12-22T08:17:01;8.50;99.90
23719;DHT22;43322;52.230;5.702;2023-12-22T08:19:28;7.40;99.90
23719;DHT22;43322;52.230;5.702;2023-12-22T08:21:56;7.30;99.90
23719;DHT22;43322;52.230;5.702;2023-12-22T08:24:23;7.20;99.90
23719;DHT22;43322;52.230;5.702;2023-12-22T08:26:51;7.20;99.90
23719;DHT22;43322;52.230;5.702;2023-12-22T08:29:17;7.20;99.90
23719;DHT22;43322;52.230;5.702;2023-12-22T08:31:45;7.30;99.90
23719;DHT22;43322;52.230;5.702;2023-12-22T08:34:12;7.30;99.90
23719;DHT22;43322;52.230;5.702;2023-12-22T08:36:39;7.40;99.90
23719;DHT22;43322;52.230;5.702;2023-12-22T08:39:08;8.50;99.90
23719;DHT22;43322;52.230;5.702;2023-12-22T08:41:35;8.50;99.90
23719;DHT22;43322;52.230;5.702;2023-12-22T08:44:03;7.30;99.90
23719;DHT22;43322;52.230;5.702;2023-12-22T08:46:31;7.30;99.90
23719;DHT22;43322;52.230;5.702;2023-12-22T08:48:58;8.20;99.90
23719;DHT22;43322;52.230;5.702;2023-12-22T08:51:25;8.40;99.90
23719;DHT22;43322;52.230;5.702;2023-12-22T08:53:53;7.30;99.90
23719;DHT22;43322;52.230;5.702;2023-12-22T08:56:21;7.30;99.90
23719;DHT22;43322;52.230;5.702;2023-12-22T08:58:50;8.40;99.90
23719;DHT22;43322;52.230;5.702;2023-12-22T09:01:18;7.30;99.90
23719;DHT22;43322;52.230;5.702;2023-12-22T09:03:45;7.40;99.90
23719;DHT22;43322;52.230;5.702;2023-12-22T09:06:14;7.40;99.90
23719;DHT22;43322;52.230;5.702;2023-12-22T09:08:41;7.90;99.90
23719;DHT22;43322;52.230;5.702;2023-12-22T09:11:08;7.60;99.90
23719;DHT22;43322;52.230;5.702;2023-12-22T09:13:37;7.60;99.90
23719;DHT22;43322;52.230;5.702;2023-12-22T09:16:05;7.80;99.90
23719;DHT22;43322;52.230;5.702;2023-12-22T09:18:32;7.70;99.90
23719;DHT22;43322;52.230;5.702;2023-12-22T09:20:59;7.70;99.90
23719;DHT22;43322;52.230;5.702;2023-12-22T09:23:26;7.80;99.90
23719;DHT22;43322;52.230;5.702;2023-12-22T09:25:53;8.10;99.90
23719;DHT22;43322;52.230;5.702;2023-12-22T09:28:20;8.00;99.90
23719;DHT22;43322;52.230;5.702;2023-12-22T09:30:48;7.90;99.90
23719;DHT22;43322;52.230;5.702;2023-12-22T09:33:15;8.10;99.90
23719;DHT22;43322;52.230;5.702;2023-12-22T09:35:42;8.30;99.90
23719;DHT22;43322;52.230;5.702;2023-12-22T09:40:36;9.40;99.90
23719;DHT22;43322;52.230;5.702;2023-12-22T09:43:06;8.00;99.90
23719;DHT22;43322;52.230;5.702;2023-12-22T09:45:33;8.90;99.90
23719;DHT22;43322;52.230;5.702;2023-12-22T09:48:03;9.30;99.90
23719;DHT22;43322;52.230;5.702;2023-12-22T09:50:32;8.20;99.90
23719;DHT22;43322;52.230;5.702;2023-12-22T09:53:00;8.20;99.90
23719;DHT22;43322;52.230;5.702;2023-12-22T09:55:31;8.10;99.90
23719;DHT22;43322;52.230;5.702;2023-12-22T09:57:59;8.10;99.90
23719;DHT22;43322;52.230;5.702;2023-12-22T10:00:28;8.10;99.90
23719;DHT22;43322;52.230;5.702;2023-12-22T10:02:55;8.00;99.90
23719;DHT22;43322;52.230;5.702;2023-12-22T10:05:24;9.00;99.90
23719;DHT22;43322;52.230;5.702;2023-12-22T10:07:51;8.00;99.90
23719;DHT22;43322;52.230;5.702;2023-12-22T10:10:18;8.00;99.90
23719;DHT22;43322;52.230;5.702;2023-12-22T10:12:46;7.90;99.90
23719;DHT22;43322;52.230;5.702;2023-12-22T10:15:14;8.00;99.90
23719;DHT22;43322;52.230;5.702;2023-12-22T10:17:42;7.90;99.90
23719;DHT22;43322;52.230;5.702;2023-12-22T10:20:10;7.90;99.90
23719;DHT22;43322;52.230;5.702;2023-12-22T10:22:38;7.90;99.90
23719;DHT22;43322;52.230;5.702;2023-12-22T10:25:07;8.40;99.90
23719;DHT22;43322;52.230;5.702;2023-12-22T10:27:36;8.00;99.90
23719;DHT22;43322;52.230;5.702;2023-12-22T10:30:04;8.10;99.90
23719;DHT22;43322;52.230;5.702;2023-12-22T10:32:31;8.00;99.90
23719;DHT22;43322;52.230;5.702;2023-12-22T10:34:58;8.10;99.90
23719;DHT22;43322;52.230;5.702;2023-12-22T10:37:25;8.70;99.90
23719;DHT22;43322;52.230;5.702;2023-12-22T10:39:54;8.30;99.90
23719;DHT22;43322;52.230;5.702;2023-12-22T10:42:21;9.10;99.90
23719;DHT22;43322;52.230;5.702;2023-12-22T10:44:48;9.00;99.90
23719;DHT22;43322;52.230;5.702;2023-12-22T10:47:17;9.00;99.90
23719;DHT22;43322;52.230;5.702;2023-12-22T10:49:46;9.30;99.90
23719;DHT22;43322;52.230;5.702;2023-12-22T10:52:15;9.60;99.90
23719;DHT22;43322;52.230;5.702;2023-12-22T10:54:43;9.40;99.90
23719;DHT22;43322;52.230;5.702;2023-12-22T10:57:11;8.70;99.90
23719;DHT22;43322;52.230;5.702;2023-12-22T10:59:45;8.40;99.90
23719;DHT22;43322;52.230;5.702;2023-12-22T11:02:15;8.50;99.90
23719;DHT22;43322;52.230;5.702;2023-12-22T11:04:56;9.00;99.90
23719;DHT22;43322;52.230;5.702;2023-12-22T11:07:24;9.10;99.90
23719;DHT22;43322;52.230;5.702;2023-12-22T11:09:52;9.20;99.90
23719;DHT22;43322;52.230;5.702;2023-12-22T11:12:23;8.50;99.90
23719;DHT22;43322;52.230;5.702;2023-12-22T11:14:52;9.60;99.90
23719;DHT22;43322;52.230;5.702;2023-12-22T11:17:22;9.90;99.90
23719;DHT22;43322;52.230;5.702;2023-12-22T11:19:50;9.20;99.90
23719;DHT22;43322;52.230;5.702;2023-12-22T11:22:19;8.80;99.90
23719;DHT22;43322;52.230;5.702;2023-12-22T11:24:48;8.80;99.90
23719;DHT22;43322;52.230;5.702;2023-12-22T11:27:17;10.00;99.90
23719;DHT22;43322;52.230;5.702;2023-12-22T11:29:47;10.00;99.90
23719;DHT22;43322;52.230;5.702;2023-12-22T11:32:16;10.10;99.90
23719;DHT22;43322;52.230;5.702;2023-12-22T11:34:44;8.90;99.90
23719;DHT22;43322;52.230;5.702;2023-12-22T11:37:11;8.90;99.90
23719;DHT22;43322;52.230;5.702;2023-12-22T11:39:39;9.00;99.90
23719;DHT22;43322;52.230;5.702;2023-12-22T11:42:07;8.90;99.90
23719;DHT22;43322;52.230;5.702;2023-12-22T11:44:35;9.40;99.90
23719;DHT22;43322;52.230;5.702;2023-12-22T11:47:08;9.10;99.90
23719;DHT22;43322;52.230;5.702;2023-12-22T11:49:36;9.10;99.90
23719;DHT22;43322;52.230;5.702;2023-12-22T11:52:16;9.10;99.90
23719;DHT22;43322;52.230;5.702;2023-12-22T11:54:44;9.10;99.90
23719;DHT22;43322;52.230;5.702;2023-12-22T11:57:30;9.10;99.90
23719;DHT22;43322;52.230;5.702;2023-12-22T11:59:58;9.10;99.90
23719;DHT22;43322;52.230;5.702;2023-12-22T12:02:29;9.30;99.90
23719;DHT22;43322;52.230;5.702;2023-12-22T12:04:58;10.20;99.90
23719;DHT22;43322;52.230;5.702;2023-12-22T12:07:46;9.10;99.90
23719;DHT22;43322;52.230;5.702;2023-12-22T12:13:15;9.10;99.90
23719;DHT22;43322;52.230;5.702;2023-12-22T12:15:48;9.00;99.90
23719;DHT22;43322;52.230;5.702;2023-12-22T12:18:21;9.00;99.90
23719;DHT22;43322;52.230;5.702;2023-12-22T12:20:48;9.00;99.90
23719;DHT22;43322;52.230;5.702;2023-12-22T12:23:16;9.10;99.90
23719;DHT22;43322;52.230;5.702;2023-12-22T12:25:43;9.10;99.90
23719;DHT22;43322;52.230;5.702;2023-12-22T12:28:10;9.20;99.90
23719;DHT22;43322;52.230;5.702;2023-12-22T12:30:38;9.10;99.90
23719;DHT22;43322;52.230;5.702;2023-12-22T12:33:06;9.20;99.90
23719;DHT22;43322;52.230;5.702;2023-12-22T12:35:35;9.10;99.90
23719;DHT22;43322;52.230;5.702;2023-12-22T12:38:03;9.10;99.90
23719;DHT22;43322;52.230;5.702;2023-12-22T12:40:30;9.10;99.90
23719;DHT22;43322;52.230;5.702;2023-12-22T12:42:59;9.10;99.90
23719;DHT22;43322;52.230;5.702;2023-12-22T12:45:27;9.20;99.90
23719;DHT22;43322;52.230;5.702;2023-12-22T12:47:56;9.10;99.90
23719;DHT22;43322;52.230;5.702;2023-12-22T12:50:24;9.10;99.90
23719;DHT22;43322;52.230;5.702;2023-12-22T12:52:53;9.00;99.90
23719;DHT22;43322;52.230;5.702;2023-12-22T12:55:20;9.90;99.90
23719;DHT22;43322;52.230;5.702;2023-12-22T12:57:48;9.40;99.90
23719;DHT22;43322;52.230;5.702;2023-12-22T13:00:16;9.60;99.90
23719;DHT22;43322;52.230;5.702;2023-12-22T13:02:44;9.10;99.90
23719;DHT22;43322;52.230;5.702;2023-12-22T13:05:20;8.90;99.90
23719;DHT22;43322;52.230;5.702;2023-12-22T13:07:48;10.00;99.90
23719;DHT22;43322;52.230;5.702;2023-12-22T13:10:24;9.90;99.90
23719;DHT22;43322;52.230;5.702;2023-12-22T13:12:51;9.10;99.90
23719;DHT22;43322;52.230;5.702;2023-12-22T13:15:20;9.10;99.90
23719;DHT22;43322;52.230;5.702;2023-12-22T13:17:49;9.10;99.90
23719;DHT22;43322;52.230;5.702;2023-12-22T13:20:16;9.70;99.90
23719;DHT22;43322;52.230;5.702;2023-12-22T13:22:44;10.40;99.90
23719;DHT22;43322;52.230;5.702;2023-12-22T13:25:11;9.10;99.90
23719;DHT22;43322;52.230;5.702;2023-12-22T13:27:46;9.10;99.90
23719;DHT22;43322;52.230;5.702;2023-12-22T13:30:14;9.30;99.90
23719;DHT22;43322;52.230;5.702;2023-12-22T13:32:42;9.20;99.90
23719;DHT22;43322;52.230;5.702;2023-12-22T13:35:09;10.00;99.90
23719;DHT22;43322;52.230;5.702;2023-12-22T13:37:41;9.30;99.90
23719;DHT22;43322;52.230;5.702;2023-12-22T13:40:09;10.50;99.90
23719;DHT22;43322;52.230;5.702;2023-12-22T13:42:36;9.40;99.90
23719;DHT22;43322;52.230;5.702;2023-12-22T13:45:10;9.40;99.90
23719;DHT22;43322;52.230;5.702;2023-12-22T13:47:40;9.60;99.90
23719;DHT22;43322;52.230;5.702;2023-12-22T13:50:13;10.60;99.90
23719;DHT22;43322;52.230;5.702;2023-12-22T13:52:41;10.10;99.90
23719;DHT22;43322;52.230;5.702;2023-12-22T13:55:10;9.40;99.90
23719;DHT22;43322;52.230;5.702;2023-12-22T13:57:38;9.40;99.90
23719;DHT22;43322;52.230;5.702;2023-12-22T14:00:28;8.80;99.90
23719;DHT22;43322;52.230;5.702;2023-12-22T14:02:58;9.40;99.90
23719;DHT22;43322;52.230;5.702;2023-12-22T14:05:25;10.70;99.90
23719;DHT22;43322;52.230;5.702;2023-12-22T14:07:54;10.50;99.90
23719;DHT22;43322;52.230;5.702;2023-12-22T14:10:21;9.80;99.90
23719;DHT22;43322;52.230;5.702;2023-12-22T14:12:48;9.50;99.90
23719;DHT22;43322;52.230;5.702;2023-12-22T14:15:15;9.90;99.90
23719;DHT22;43322;52.230;5.702;2023-12-22T14:17:42;9.50;99.90
23719;DHT22;43322;52.230;5.702;2023-12-22T14:20:11;10.00;99.90
23719;DHT22;43322;52.230;5.702;2023-12-22T14:22:38;9.40;99.90
23719;DHT22;43322;52.230;5.702;2023-12-22T14:25:06;10.80;99.90
23719;DHT22;43322;52.230;5.702;2023-12-22T14:27:33;9.30;99.90
23719;DHT22;43322;52.230;5.702;2023-12-22T14:30:00;9.40;99.90
23719;DHT22;43322;52.230;5.702;2023-12-22T14:32:27;9.50;99.90
23719;DHT22;43322;52.230;5.702;2023-12-22T14:34:55;9.90;99.90
23719;DHT22;43322;52.230;5.702;2023-12-22T14:37:24;10.20;99.90
23719;DHT22;43322;52.230;5.702;2023-12-22T14:39:51;9.50;99.90
23719;DHT22;43322;52.230;5.702;2023-12-22T14:42:19;9.20;99.90
23719;DHT22;43322;52.230;5.702;2023-12-22T14:44:45;9.40;99.90
23719;DHT22;43322;52.230;5.702;2023-12-22T14:47:12;9.50;99.90
23719;DHT22;43322;52.230;5.702;2023-12-22T14:49:40;10.20;99.90
23719;DHT22;43322;52.230;5.702;2023-12-22T14:52:07;9.40;99.90
23719;DHT22;43322;52.230;5.702;2023-12-22T14:54:37;9.90;99.90
23719;DHT22;43322;52.230;5.702;2023-12-22T14:57:04;9.20;99.90
23719;DHT22;43322;52.230;5.702;2023-12-22T14:59:31;9.20;99.90
23719;DHT22;43322;52.230;5.702;2023-12-22T15:01:59;10.70;99.90
23719;DHT22;43322;52.230;5.702;2023-12-22T15:04:26;10.10;99.90
23719;DHT22;43322;52.230;5.702;2023-12-22T15:06:53;9.20;99.90
23719;DHT22;43322;52.230;5.702;2023-12-22T15:09:20;10.40;99.90
23719;DHT22;43322;52.230;5.702;2023-12-22T15:11:49;10.00;99.90
23719;DHT22;43322;52.230;5.702;2023-12-22T15:14:16;9.50;99.90
23719;DHT22;43322;52.230;5.702;2023-12-22T15:16:44;9.40;99.90
23719;DHT22;43322;52.230;5.702;2023-12-22T15:19:13;10.50;99.90
23719;DHT22;43322;52.230;5.702;2023-12-22T15:21:40;9.40;99.90
23719;DHT22;43322;52.230;5.702;2023-12-22T15:24:07;10.40;99.90
23719;DHT22;43322;52.230;5.702;2023-12-22T15:26:36;9.40;99.90
23719;DHT22;43322;52.230;5.702;2023-12-22T15:29:04;8.30;99.90
23719;DHT22;43322;52.230;5.702;2023-12-22T15:31:31;9.50;99.90
23719;DHT22;43322;52.230;5.702;2023-12-22T15:34:00;9.90;99.90
23719;DHT22;43322;52.230;5.702;2023-12-22T15:36:27;9.50;99.90
23719;DHT22;43322;52.230;5.702;2023-12-22T15:38:55;9.50;99.90
23719;DHT22;43322;52.230;5.702;2023-12-22T15:41:22;9.60;99.90
23719;DHT22;43322;52.230;5.702;2023-12-22T15:43:49;10.60;99.90
23719;DHT22;43322;52.230;5.702;2023-12-22T15:46:18;9.60;99.90
23719;DHT22;43322;52.230;5.702;2023-12-22T15:48:45;9.50;99.90
23719;DHT22;43322;52.230;5.702;2023-12-22T15:51:12;9.70;99.90
23719;DHT22;43322;52.230;5.702;2023-12-22T15:53:40;10.50;99.90
23719;DHT22;43322;52.230;5.702;2023-12-22T15:56:08;10.00;99.90